Aviation Digital Data Service (ADDS)

Output produced by METARs form (1752 UTC 21 September 2019)
found at http://aviationweather.gov/metar/data/
 
METAR text: KAVP 211654Z VRB03KT 10SM CLR 26/13 A3024 RMK AO2 SLP232 T02560128
Conditions at: KAVP (AVOCA/WILKES B. , PA, US) observed 1654 UTC 21 September 2019
Temperature: 25.6°C (78°F)
Dewpoint: 12.8°C (55°F) [RH = 45%]
Pressure (altimeter): 30.24 inches Hg (1024.1 mb)
[Sea-level pressure: 1023.2 mb]
Winds: variable direction winds at 3 MPH (3 knots; 1.5 m/s)
Visibility: 10 or more miles (16+ km)
Ceiling: at least 12,000 feet AGL
Clouds: sky clear below 12,000 feet AGL
Weather: no significant weather observed at this time

METAR text: KAVP 211554Z VRB03KT 10SM CLR 23/13 A3026 RMK AO2 SLP241 T02280128
Conditions at: KAVP (AVOCA/WILKES B. , PA, US) observed 1554 UTC 21 September 2019
Temperature: 22.8°C (73°F)
Dewpoint: 12.8°C (55°F) [RH = 53%]
Pressure (altimeter): 30.26 inches Hg (1024.8 mb)
[Sea-level pressure: 1024.1 mb]
Winds: variable direction winds at 3 MPH (3 knots; 1.5 m/s)
Visibility: 10 or more miles (16+ km)
Ceiling: at least 12,000 feet AGL
Clouds: sky clear below 12,000 feet AGL
Weather: no significant weather observed at this time

Forecast for: KAVP (AVOCA/WILKES B. , PA, US)
Text: KAVP 211735Z 2118/2218 VRB04KT P6SM FEW250
Forecast period: 1800 UTC 21 September 2019 to 1400 UTC 22 September 2019
Forecast type: FROM: standard forecast or significant change
Winds: variable direction winds at 5 MPH (4 knots; 2.1 m/s)
Visibility: 6 or more miles 10+ km)
Ceiling: at least 12,000 feet AGL
Clouds: few clouds at 25000 feet AGL
Weather: no significant weather forecast for this period
Text: FM221400 22006KT P6SM FEW080 SCT250
Forecast period: 1400 to 1800 UTC 22 September 2019
Forecast type: FROM: standard forecast or significant change
Winds: from the SW (220 degrees) at 7 MPH (6 knots; 3.1 m/s)
Visibility: 6 or more miles 10+ km)
Ceiling: at least 12,000 feet AGL
Clouds: few clouds at 8000 feet AGL
scattered clouds at 25000 feet AGL
Weather: no significant weather forecast for this period